Time;durP1;ratioP1;P1;durP2;ratioP2;P2;SDS_P1;SDS_P2;PMS_P1;PMS_P2;Temp;Humidity;BMP_temperature;BMP_pressure;BME280_temperature;BME280_humidity;BME280_pressure;Samples;Min_cycle;Max_cycle;Signal;HPM_P1;HPM_P2
2023/03/30 00:00:17;;;;;;;22.37;3.33;;;;;;;17.43;48.65;98299.06;4960282;28;20290;-55
2023/03/30 00:02:45;;;;;;;15.03;2.53;;;;;;;17.49;47.98;98304.31;4959907;28;20231;-54
2023/03/30 00:05:12;;;;;;;14.90;3.13;;;;;;;17.46;48.72;98293.38;4959218;28;20234;-56
2023/03/30 00:07:41;;;;;;;21.17;2.93;;;;;;;17.44;48.86;98293.56;4961702;28;20228;-55
2023/03/30 00:10:09;;;;;;;15.20;2.83;;;;;;;17.50;48.24;98289.28;4956420;28;20235;-55
2023/03/30 00:12:35;;;;;;;16.80;2.43;;;;;;;17.51;48.21;98278.53;4962028;28;20300;-56
2023/03/30 00:15:02;;;;;;;21.43;2.90;;;;;;;17.55;48.14;98269.19;4959450;28;20353;-55
2023/03/30 00:17:29;;;;;;;25.43;4.27;;;;;;;17.61;48.17;98266.75;4961100;28;20234;-56
2023/03/30 00:19:57;;;;;;;15.83;2.43;;;;;;;17.60;48.19;98252.75;4957788;28;20246;-55
2023/03/30 00:22:26;;;;;;;18.37;3.17;;;;;;;17.55;48.76;98257.81;4961383;28;21030;-56
2023/03/30 00:24:53;;;;;;;15.43;2.60;;;;;;;17.48;50.64;98251.75;4954224;28;20221;-55
2023/03/30 00:27:20;;;;;;;16.80;3.10;;;;;;;17.42;49.51;98256.03;4961417;28;20220;-57
2023/03/30 00:29:46;;;;;;;15.80;2.27;;;;;;;17.43;49.85;98267.41;4957500;28;20226;-54
2023/03/30 00:32:13;;;;;;;16.53;2.30;;;;;;;17.36;50.73;98285.84;4957667;28;20230;-56
2023/03/30 00:34:40;;;;;;;15.40;2.53;;;;;;;17.30;53.14;98321.78;4960614;28;20230;-56
2023/03/30 00:37:08;;;;;;;19.80;2.80;;;;;;;17.10;54.59;98346.28;4973201;28;20231;-56
2023/03/30 00:39:34;;;;;;;17.07;2.77;;;;;;;17.06;56.34;98345.06;4958145;28;20231;-54
2023/03/30 00:42:01;;;;;;;18.17;3.13;;;;;;;16.89;59.48;98339.34;4971970;28;20287;-56
2023/03/30 00:45:20;;;;;;;16.60;2.90;;;;;;;16.82;59.25;98333.22;4975347;28;20233;-56
2023/03/30 00:47:52;;;;;;;19.03;4.10;;;;;;;16.64;61.49;98308.25;4954107;28;20653;-56
2023/03/30 00:50:21;;;;;;;18.47;3.10;;;;;;;16.47;63.58;98304.31;4960035;28;20646;-56
2023/03/30 00:52:52;;;;;;;32.83;4.37;;;;;;;16.38;64.61;98296.59;4958825;28;20233;-53
2023/03/30 00:55:21;;;;;;;20.67;2.87;;;;;;;16.22;66.40;98295.13;4962541;28;20577;-54
2023/03/30 00:57:51;;;;;;;14.17;2.93;;;;;;;16.07;66.90;98302.31;4956980;28;20445;-53
2023/03/30 01:00:19;;;;;;;16.63;3.33;;;;;;;15.99;67.82;98318.28;4978136;28;20574;-55
2023/03/30 01:02:54;;;;;;;18.47;3.53;;;;;;;15.99;66.62;98332.22;4959302;28;20226;-55
2023/03/30 01:05:23;;;;;;;17.70;3.07;;;;;;;15.98;66.83;98340.34;4978632;28;20593;-52
2023/03/30 01:07:52;;;;;;;13.60;2.70;;;;;;;15.93;66.91;98343.53;4961770;28;20249;-53
2023/03/30 01:10:19;;;;;;;16.20;2.90;;;;;;;16.00;64.38;98339.13;4964525;28;20683;-55
2023/03/30 01:12:49;;;;;;;20.70;2.80;;;;;;;16.09;62.91;98343.22;4959324;28;20688;-52
2023/03/30 01:15:16;;;;;;;17.40;3.43;;;;;;;16.17;63.22;98342.28;4961704;28;20641;-56
2023/03/30 01:18:02;;;;;;;13.43;3.10;;;;;;;16.14;62.87;98341.84;4963879;28;20238;-55
2023/03/30 01:20:58;;;;;;;23.17;3.10;;;;;;;16.24;61.55;98350.19;4976822;28;20254;-55
2023/03/30 01:23:54;;;;;;;18.27;3.47;;;;;;;16.22;62.77;98339.06;4959509;28;20369;-55
2023/03/30 01:26:45;;;;;;;25.87;3.20;;;;;;;16.33;61.33;98353.50;4962403;28;20222;-54
2023/03/30 01:29:20;;;;;;;19.93;3.57;;;;;;;16.29;61.24;98355.69;4962641;28;20232;-53
2023/03/30 01:32:09;;;;;;;18.67;3.10;;;;;;;16.26;61.53;98355.28;4963884;28;20230;-55
2023/03/30 01:35:12;;;;;;;20.40;3.53;;;;;;;16.25;62.27;98357.09;4964855;28;20222;-54
2023/03/30 01:38:02;;;;;;;18.97;3.37;;;;;;;16.25;60.96;98349.19;4965773;28;20227;-55
2023/03/30 01:40:34;;;;;;;18.77;3.87;;;;;;;16.10;64.15;98370.38;4982073;28;20234;-55
2023/03/30 01:43:08;;;;;;;22.97;3.23;;;;;;;16.06;64.27;98375.22;4963127;28;20281;-54
2023/03/30 01:45:43;;;;;;;21.97;3.60;;;;;;;16.07;63.51;98382.09;4968436;28;20341;-53
2023/03/30 01:48:15;;;;;;;21.17;3.87;;;;;;;15.98;64.34;98391.16;4981715;28;20236;-55
2023/03/30 01:50:46;;;;;;;17.90;2.80;;;;;;;15.91;67.38;98395.56;4967822;28;20233;-53
2023/03/30 01:53:17;;;;;;;15.03;3.03;;;;;;;15.81;68.35;98364.28;4964499;28;20236;-53
2023/03/30 01:55:49;;;;;;;17.57;3.60;;;;;;;15.73;67.67;98353.91;4962112;28;20675;-52
2023/03/30 01:58:21;;;;;;;19.07;3.53;;;;;;;15.53;73.23;98351.91;4966111;28;20308;-53
2023/03/30 02:00:50;;;;;;;21.20;3.53;;;;;;;15.33;75.79;98365.72;4963115;28;20230;-53
2023/03/30 02:03:21;;;;;;;14.77;3.03;;;;;;;15.33;76.47;98342.06;4964209;28;20712;-53
2023/03/30 02:05:52;;;;;;;20.43;3.63;;;;;;;15.11;80.16;98327.28;4964525;28;20233;-54
2023/03/30 02:08:21;;;;;;;13.77;3.03;;;;;;;15.01;80.67;98317.06;4967283;28;20226;-52
2023/03/30 02:10:53;;;;;;;25.57;3.40;;;;;;;14.89;84.35;98286.00;4965365;28;20236;-52
2023/03/30 02:13:21;;;;;;;15.77;3.37;;;;;;;14.71;88.19;98283.81;4984512;28;20236;-53
2023/03/30 02:15:53;;;;;;;19.00;4.30;;;;;;;14.62;88.95;98269.13;4980910;28;20224;-55
2023/03/30 02:18:20;;;;;;;17.10;3.17;;;;;;;14.38;90.99;98255.34;4963197;28;20221;-53
2023/03/30 02:20:48;;;;;;;10.27;3.03;;;;;;;14.28;91.71;98246.97;4962635;28;20283;-52
2023/03/30 02:23:17;;;;;;;20.67;3.73;;;;;;;14.24;93.11;98240.47;4966674;28;20229;-55
2023/03/30 02:25:44;;;;;;;22.07;3.30;;;;;;;14.13;95.51;98239.09;4981069;28;20742;-55
2023/03/30 02:28:12;;;;;;;18.43;4.23;;;;;;;14.06;95.06;98235.56;4982273;28;20235;-54
2023/03/30 02:30:42;;;;;;;18.23;3.30;;;;;;;14.02;95.47;98238.56;4962232;28;20224;-54
2023/03/30 02:33:19;;;;;;;18.63;3.40;;;;;;;13.99;95.49;98220.56;4964196;28;20238;-54
2023/03/30 02:36:08;;;;;;;16.57;3.23;;;;;;;14.01;95.35;98197.56;4979389;28;20718;-54
2023/03/30 02:38:51;;;;;;;14.77;3.20;;;;;;;13.92;98.11;98197.88;4982729;28;20728;-54
2023/03/30 02:41:33;;;;;;;11.80;2.73;;;;;;;13.88;98.68;98185.13;4979362;28;20258;-55
2023/03/30 02:44:09;;;;;;;17.40;3.10;;;;;;;13.78;100.00;98192.47;4980830;28;20230;-52
2023/03/30 02:46:59;;;;;;;19.13;3.53;;;;;;;13.72;100.00;98180.91;4964018;28;20243;-54
2023/03/30 02:49:34;;;;;;;11.80;3.00;;;;;;;13.69;100.00;98186.50;4980028;28;20232;-53
2023/03/30 02:52:09;;;;;;;20.03;3.67;;;;;;;13.63;100.00;98191.66;4979383;28;20261;-54
2023/03/30 02:54:48;;;;;;;12.53;3.77;;;;;;;13.60;100.00;98177.09;4981912;28;20312;-52
2023/03/30 02:57:32;;;;;;;12.27;3.33;;;;;;;13.55;100.00;98176.81;4965792;28;20241;-54
2023/03/30 03:00:41;;;;;;;17.00;3.83;;;;;;;13.50;100.00;98169.50;4931027;28;20278;-52
2023/03/30 03:03:16;;;;;;;14.47;3.13;;;;;;;13.47;100.00;98175.09;4958197;28;20263;-52
2023/03/30 03:05:44;;;;;;;10.43;3.43;;;;;;;13.49;100.00;98161.81;4964645;28;20233;-53
2023/03/30 03:08:15;;;;;;;16.97;2.70;;;;;;;13.43;100.00;98151.06;4965683;28;20233;-55
2023/03/30 03:10:43;;;;;;;10.60;3.40;;;;;;;13.37;100.00;98143.06;4964265;28;20311;-55
2023/03/30 03:13:11;;;;;;;20.67;3.83;;;;;;;13.34;100.00;98148.66;4981297;28;20253;-55
2023/03/30 03:15:45;;;;;;;19.40;3.97;;;;;;;13.27;100.00;98153.81;4964271;28;20386;-55
2023/03/30 03:18:12;;;;;;;17.60;3.63;;;;;;;13.24;100.00;98159.41;4966046;28;20730;-54
2023/03/30 03:20:39;;;;;;;14.27;3.50;;;;;;;13.19;100.00;98154.72;4974440;28;20235;-55
2023/03/30 03:23:06;;;;;;;12.00;3.00;;;;;;;13.13;100.00;98145.75;4965102;28;20235;-54
2023/03/30 03:25:42;;;;;;;11.93;2.63;;;;;;;13.11;100.00;98150.38;4981809;28;20223;-53
2023/03/30 03:28:10;;;;;;;13.30;2.63;;;;;;;13.09;100.00;98154.97;4963230;28;20262;-55
2023/03/30 03:30:48;;;;;;;8.57;2.87;;;;;;;13.16;100.00;98142.00;5176495;23;20958;-55
2023/03/30 03:33:19;;;;;;;15.50;3.00;;;;;;;13.24;100.00;98146.31;4964300;28;20592;-55
2023/03/30 03:35:53;;;;;;;13.60;2.70;;;;;;;13.33;100.00;98147.88;4985689;28;20236;-54
2023/03/30 03:38:21;;;;;;;12.07;2.90;;;;;;;13.34;100.00;98132.94;4974108;28;20212;-56
2023/03/30 03:40:51;;;;;;;11.43;2.43;;;;;;;13.37;100.00;98125.53;4962046;28;20620;-56
2023/03/30 03:43:18;;;;;;;12.63;2.77;;;;;;;13.34;100.00;98118.03;4952780;28;20236;-56
2023/03/30 03:45:45;;;;;;;13.60;2.57;;;;;;;13.34;100.00;98120.66;4985994;23;20229;-60
2023/03/30 03:48:14;;;;;;;14.93;3.33;;;;;;;13.29;100.00;98125.63;4996104;28;20307;-60
2023/03/30 03:50:53;;;;;;;8.63;2.40;;;;;;;13.34;100.00;98117.22;4999274;28;20233;-59
2023/03/30 03:53:22;;;;;;;14.07;2.40;;;;;;;13.38;100.00;98119.28;4983343;28;20257;-59
2023/03/30 03:55:51;;;;;;;13.33;3.10;;;;;;;13.48;99.39;98116.41;4978893;28;20221;-59
2023/03/30 03:58:18;;;;;;;16.50;2.73;;;;;;;13.55;99.60;98104.22;4985224;28;20263;-60
2023/03/30 04:00:45;;;;;;;10.37;1.90;;;;;;;13.60;97.79;98102.84;4983068;28;20234;-60
2023/03/30 04:03:13;;;;;;;10.70;2.50;;;;;;;13.58;100.00;98100.41;4987186;28;20696;-60
2023/03/30 04:05:40;;;;;;;15.67;2.73;;;;;;;13.51;100.00;98104.78;4985146;28;20227;-60
2023/03/30 04:08:09;;;;;;;9.73;2.63;;;;;;;13.46;100.00;98094.00;4981804;28;20232;-60
2023/03/30 04:10:37;;;;;;;14.57;3.67;;;;;;;13.45;100.00;98095.00;4986665;28;20321;-60
2023/03/30 04:13:20;;;;;;;12.13;2.63;;;;;;;13.45;100.00;98068.78;4982492;28;20293;-60
2023/03/30 04:16:10;;;;;;;7.07;2.13;;;;;;;13.45;100.00;98074.03;4967255;28;20328;-60
2023/03/30 04:18:58;;;;;;;12.83;2.90;;;;;;;13.43;100.00;98064.53;4985892;28;20308;-60
2023/03/30 04:21:51;;;;;;;9.53;2.77;;;;;;;13.41;100.00;98061.28;4974230;28;20659;-58
2023/03/30 04:24:36;;;;;;;11.43;2.83;;;;;;;13.36;100.00;98047.06;4989017;28;20233;-60
2023/03/30 04:27:27;;;;;;;13.17;3.30;;;;;;;13.27;100.00;98023.56;4979654;28;20591;-60
2023/03/30 04:30:10;;;;;;;16.83;3.10;;;;;;;13.24;100.00;98015.28;4981352;28;20245;-59
2023/03/30 04:32:38;;;;;;;19.87;3.97;;;;;;;13.41;98.05;98018.50;4985702;28;20230;-58
2023/03/30 04:35:26;;;;;;;22.83;4.10;;;;;;;13.55;95.23;98006.41;4983986;28;20230;-60
2023/03/30 04:38:12;;;;;;;15.33;3.60;;;;;;;13.65;94.93;98004.28;4981871;28;20238;-60
2023/03/30 04:41:00;;;;;;;25.27;6.43;;;;;;;13.88;88.67;97995.41;4985086;28;20260;-59
2023/03/30 04:43:54;;;;;;;23.80;7.13;;;;;;;14.10;87.79;97990.16;4982198;28;20284;-60
2023/03/30 04:46:39;;;;;;;21.23;4.77;;;;;;;14.17;86.58;97986.59;4988273;28;20225;-59
2023/03/30 04:49:24;;;;;;;17.10;4.27;;;;;;;14.17;86.50;97983.13;4988431;28;20664;-59
2023/03/30 04:51:53;;;;;;;21.07;3.97;;;;;;;14.23;87.37;97977.13;4982494;28;20234;-60
2023/03/30 04:54:58;;;;;;;22.57;3.87;;;;;;;14.50;78.89;97989.63;4977092;28;20638;-60
2023/03/30 04:57:31;;;;;;;16.80;3.97;;;;;;;14.55;80.64;97974.94;4986660;28;20245;-59
2023/03/30 05:00:08;;;;;;;19.27;3.53;;;;;;;14.81;77.12;97985.81;4985800;28;20608;-59
2023/03/30 05:02:35;;;;;;;22.97;3.47;;;;;;;15.00;74.33;97990.38;4989190;28;20239;-59
2023/03/30 05:05:19;;;;;;;25.50;3.63;;;;;;;15.10;72.85;97981.31;4986802;28;20231;-60
2023/03/30 05:07:47;;;;;;;19.07;3.90;;;;;;;15.25;70.87;98013.53;4991302;28;20239;-60
2023/03/30 05:10:28;;;;;;;22.03;4.53;;;;;;;15.38;70.73;98046.94;4986994;28;20290;-59
2023/03/30 05:12:55;;;;;;;28.83;8.03;;;;;;;15.30;74.64;98083.91;4989416;28;20303;-59
2023/03/30 05:15:45;;;;;;;20.83;3.80;;;;;;;15.31;74.60;98115.28;4985491;28;20697;-59
2023/03/30 05:18:30;;;;;;;22.73;5.17;;;;;;;15.24;76.65;98148.63;4991180;28;20748;-60
2023/03/30 05:21:12;;;;;;;21.57;5.73;;;;;;;15.06;80.41;98178.00;4986468;28;20234;-60
2023/03/30 05:23:41;;;;;;;17.93;3.90;;;;;;;14.63;87.31;98234.00;4989286;28;20832;-60
2023/03/30 05:26:35;;;;;;;22.60;3.77;;;;;;;13.84;97.21;98209.25;4985831;28;20698;-60
2023/03/30 05:29:25;;;;;;;20.77;4.03;;;;;;;13.48;100.00;98215.25;4981203;28;20226;-60
2023/03/30 05:31:51;;;;;;;19.77;5.13;;;;;;;13.37;100.00;98230.41;4983446;28;20235;-59
2023/03/30 05:34:37;;;;;;;17.97;4.60;;;;;;;13.26;100.00;98236.06;4989681;28;20235;-60
2023/03/30 05:37:42;;;;;;;22.97;4.77;;;;;;;13.12;100.00;98261.25;4947712;28;20231;-60
2023/03/30 05:40:39;;;;;;;17.83;4.33;;;;;;;13.04;100.00;98271.78;4928822;28;20242;-61
2023/03/30 05:43:25;;;;;;;23.73;3.80;;;;;;;13.04;100.00;98264.75;4978699;28;20241;-60
2023/03/30 05:46:27;;;;;;;24.27;3.77;;;;;;;12.99;100.00;98259.22;4945494;28;20894;-60
2023/03/30 05:49:26;;;;;;;18.00;4.07;;;;;;;13.05;100.00;98278.66;4977114;28;20269;-60
2023/03/30 05:52:06;;;;;;;17.93;3.70;;;;;;;13.14;100.00;98283.66;4985784;28;20248;-60
2023/03/30 05:55:02;;;;;;;19.90;4.00;;;;;;;13.09;100.00;98287.81;4990678;28;20241;-60
2023/03/30 05:57:50;;;;;;;20.43;3.97;;;;;;;13.12;100.00;98293.50;4984943;28;20306;-60
2023/03/30 06:00:43;;;;;;;18.00;4.33;;;;;;;13.03;100.00;98299.00;4985839;28;20242;-58
2023/03/30 06:03:20;;;;;;;25.60;5.43;;;;;;;12.95;100.00;98292.81;4981954;28;20445;-59
2023/03/30 06:05:46;;;;;;;22.43;4.43;;;;;;;12.86;100.00;98299.09;4986100;28;20242;-59
2023/03/30 06:08:13;;;;;;;17.63;4.80;;;;;;;12.91;100.00;98316.91;4986394;28;20227;-60
2023/03/30 06:10:41;;;;;;;28.30;5.40;;;;;;;12.82;100.00;98313.53;4985649;28;20689;-59
2023/03/30 06:13:12;;;;;;;24.00;4.67;;;;;;;12.78;100.00;98312.25;4985160;28;20249;-59
2023/03/30 06:15:46;;;;;;;22.40;4.27;;;;;;;12.78;100.00;98304.38;4983594;28;20311;-60
2023/03/30 06:18:17;;;;;;;19.87;3.77;;;;;;;12.70;100.00;98290.34;4987944;28;20230;-60
2023/03/30 06:20:52;;;;;;;17.17;4.03;;;;;;;12.68;100.00;98296.75;4982609;28;20312;-60
2023/03/30 06:23:19;;;;;;;20.97;4.47;;;;;;;12.68;100.00;98338.66;4988264;28;20250;-59
2023/03/30 06:25:51;;;;;;;19.23;4.30;;;;;;;12.61;100.00;98354.22;4983637;28;20706;-59
2023/03/30 06:28:20;;;;;;;24.37;5.40;;;;;;;12.65;100.00;98381.69;4986349;28;20928;-59
2023/03/30 06:30:47;;;;;;;25.80;5.23;;;;;;;12.58;100.00;98385.97;4985014;28;20227;-59
2023/03/30 06:33:16;;;;;;;21.93;5.30;;;;;;;12.53;100.00;98381.25;4985136;28;20272;-59
2023/03/30 06:35:47;;;;;;;19.77;6.43;;;;;;;12.49;100.00;98376.53;4984451;28;20238;-60
2023/03/30 06:38:14;;;;;;;46.53;18.50;;;;;;;12.44;100.00;98387.50;4987059;28;20274;-60
2023/03/30 06:40:41;;;;;;;33.10;15.07;;;;;;;12.37;100.00;98400.44;4985727;28;20243;-59
2023/03/30 06:43:13;;;;;;;29.90;9.17;;;;;;;12.37;100.00;98376.06;4985137;28;20760;-60
2023/03/30 06:45:51;;;;;;;18.30;4.87;;;;;;;12.33;100.00;98366.94;4984006;28;20244;-60
2023/03/30 06:48:19;;;;;;;22.37;5.20;;;;;;;12.34;100.00;98368.56;4988314;28;20250;-59
2023/03/30 06:50:51;;;;;;;22.60;4.87;;;;;;;12.27;100.00;98383.31;4984433;28;20229;-60
2023/03/30 06:53:23;;;;;;;15.40;4.77;;;;;;;12.21;100.00;98380.38;4985762;28;20268;-59
2023/03/30 06:55:52;;;;;;;13.93;4.67;;;;;;;12.21;100.00;98358.59;4984413;28;20218;-59
2023/03/30 06:58:19;;;;;;;17.17;4.90;;;;;;;12.20;100.00;98310.69;4989642;28;20714;-57
2023/03/30 07:00:46;;;;;;;12.70;4.07;;;;;;;12.18;100.00;98314.50;4990049;28;20601;-59
2023/03/30 07:03:46;;;;;;;15.03;4.07;;;;;;;12.14;100.00;98327.06;4982364;28;20249;-60
2023/03/30 07:06:21;;;;;;;15.10;4.40;;;;;;;12.14;100.00;98355.84;4986455;28;20227;-60
2023/03/30 07:08:49;;;;;;;10.77;3.97;;;;;;;12.12;100.00;98346.56;4982598;28;20226;-59
2023/03/30 07:11:21;;;;;;;17.30;4.23;;;;;;;12.09;100.00;98356.38;4986118;28;20256;-59
2023/03/30 07:13:50;;;;;;;14.53;4.57;;;;;;;12.10;100.00;98349.31;4983838;28;20309;-60
2023/03/30 07:16:16;;;;;;;14.63;4.53;;;;;;;12.05;100.00;98325.47;4993875;28;20256;-59
2023/03/30 07:18:43;;;;;;;14.50;4.47;;;;;;;12.04;100.00;98326.44;4986153;28;20690;-59
2023/03/30 07:21:11;;;;;;;13.90;3.93;;;;;;;12.06;100.00;98343.63;4999402;28;20244;-60
2023/03/30 07:23:40;;;;;;;12.07;3.80;;;;;;;12.04;100.00;98360.47;4987369;28;20238;-59
2023/03/30 07:26:12;;;;;;;12.73;4.20;;;;;;;12.06;100.00;98377.63;4983385;28;20237;-59
2023/03/30 07:28:50;;;;;;;12.60;4.50;;;;;;;12.06;100.00;98400.34;4982976;28;20317;-59
2023/03/30 07:31:20;;;;;;;13.07;4.33;;;;;;;12.09;100.00;98389.56;4984179;28;20297;-59
2023/03/30 07:33:48;;;;;;;15.40;4.10;;;;;;;12.14;100.00;98389.06;4981891;28;20719;-60
2023/03/30 07:36:21;;;;;;;12.43;3.30;;;;;;;12.15;100.00;98412.44;4985493;28;20227;-60
2023/03/30 07:38:48;;;;;;;11.73;3.40;;;;;;;12.07;100.00;98421.13;4983056;28;20260;-60
2023/03/30 07:41:18;;;;;;;12.13;3.67;;;;;;;12.06;100.00;98413.44;4992835;28;20234;-60
2023/03/30 07:43:51;;;;;;;8.73;3.20;;;;;;;12.04;100.00;98403.16;4979548;28;20227;-60
2023/03/30 07:46:18;;;;;;;7.73;3.33;;;;;;;12.05;100.00;98393.47;4983552;28;20226;-60
2023/03/30 07:48:51;;;;;;;9.87;3.20;;;;;;;12.06;100.00;98387.25;4981642;28;20281;-60
2023/03/30 07:51:21;;;;;;;10.57;3.00;;;;;;;12.05;100.00;98391.69;4982028;28;20240;-60
2023/03/30 07:53:58;;;;;;;9.53;3.23;;;;;;;12.04;100.00;98400.53;4984238;28;20311;-60
2023/03/30 07:56:37;;;;;;;15.77;5.70;;;;;;;11.97;100.00;98399.53;4987110;28;20223;-60
2023/03/30 07:59:04;;;;;;;11.20;4.40;;;;;;;11.93;100.00;98377.28;4983739;28;20237;-60
2023/03/30 08:01:34;;;;;;;11.53;3.10;;;;;;;11.90;100.00;98356.69;4984974;28;20249;-60
2023/03/30 08:04:35;;;;;;;11.73;3.10;;;;;;;11.86;100.00;98344.94;4943022;28;20242;-60
2023/03/30 08:07:03;;;;;;;8.93;2.90;;;;;;;11.84;100.00;98332.00;4981835;28;20289;-61
2023/03/30 08:09:31;;;;;;;10.77;2.40;;;;;;;11.78;100.00;98327.44;4985255;28;20222;-60
2023/03/30 08:11:57;;;;;;;8.20;2.23;;;;;;;11.80;100.00;98330.72;4982243;28;20233;-61
2023/03/30 08:14:26;;;;;;;7.23;2.93;;;;;;;11.86;100.00;98337.88;4974793;28;20245;-60
2023/03/30 08:16:52;;;;;;;5.00;2.37;;;;;;;11.92;100.00;98334.63;4983621;28;20248;-60
2023/03/30 08:19:19;;;;;;;8.30;2.70;;;;;;;11.91;100.00;98327.75;4985313;28;20216;-60
2023/03/30 08:21:46;;;;;;;28.43;12.23;;;;;;;12.00;100.00;98314.69;4982094;28;20241;-60
2023/03/30 08:24:14;;;;;;;30.70;13.30;;;;;;;12.08;100.00;98319.91;4986272;28;20238;-60
2023/03/30 08:26:41;;;;;;;29.57;12.80;;;;;;;12.16;100.00;98308.59;4987392;28;20267;-60
2023/03/30 08:29:07;;;;;;;51.07;20.57;;;;;;;12.22;100.00;98334.91;4983292;28;20255;-60
2023/03/30 08:31:36;;;;;;;5.27;2.87;;;;;;;12.31;100.00;98337.50;4985186;28;20231;-60
2023/03/30 08:34:03;;;;;;;9.13;2.80;;;;;;;12.58;100.00;98317.09;4982027;28;20231;-58
2023/03/30 08:36:30;;;;;;;6.67;4.50;;;;;;;12.82;100.00;98314.31;4986695;28;20316;-61
2023/03/30 08:38:56;;;;;;;5.67;2.60;;;;;;;13.12;100.00;98318.91;4983070;28;20233;-61
2023/03/30 08:41:58;;;;;;;7.93;2.60;;;;;;;13.33;100.00;98325.28;4986981;28;20325;-61
2023/03/30 08:44:34;;;;;;;9.17;2.77;;;;;;;13.63;99.20;98317.53;4970286;28;20237;-61
2023/03/30 08:47:03;;;;;;;5.77;2.37;;;;;;;13.78;98.46;98326.25;4984866;28;20225;-61
2023/03/30 08:49:35;;;;;;;8.97;2.27;;;;;;;14.03;95.46;98316.31;4988880;28;20285;-61
2023/03/30 08:52:04;;;;;;;10.13;2.57;;;;;;;14.13;95.71;98336.22;4984780;28;20329;-61
2023/03/30 08:54:32;;;;;;;11.23;2.93;;;;;;;13.84;98.69;98329.94;4992456;28;20244;-60
2023/03/30 08:57:10;;;;;;;5.30;2.10;;;;;;;14.07;99.49;98331.69;4988345;28;20234;-61
2023/03/30 08:59:44;;;;;;;6.97;3.50;;;;;;;14.28;93.83;98321.28;4990367;28;20263;-61
2023/03/30 09:02:16;;;;;;;6.53;2.43;;;;;;;14.33;92.31;98320.72;4985965;28;20246;-61
2023/03/30 09:04:56;;;;;;;11.00;5.90;;;;;;;14.52;90.17;98329.03;4988344;28;20268;-64
2023/03/30 09:07:26;;;;;;;6.60;2.27;;;;;;;14.38;92.50;98343.81;4985794;28;20321;-60
2023/03/30 09:09:53;;;;;;;5.60;3.37;;;;;;;14.03;90.91;98347.78;4983958;28;20252;-60
2023/03/30 09:12:33;;;;;;;5.60;3.10;;;;;;;13.98;91.49;98358.00;4989069;28;20237;-60
2023/03/30 09:15:04;;;;;;;6.60;2.70;;;;;;;13.76;91.05;98379.88;4986834;28;20233;-60
2023/03/30 09:17:34;;;;;;;8.73;2.87;;;;;;;13.73;90.53;98405.47;4989466;28;20237;-60
2023/03/30 09:20:08;;;;;;;8.83;3.23;;;;;;;13.61;93.28;98395.56;4986810;28;20756;-60
2023/03/30 09:22:38;;;;;;;8.53;2.80;;;;;;;13.54;97.84;98395.47;4991263;28;20288;-60
2023/03/30 09:25:14;;;;;;;10.40;2.87;;;;;;;13.63;96.00;98404.06;4985987;28;21120;-59
2023/03/30 09:27:51;;;;;;;6.97;2.87;;;;;;;13.51;96.67;98412.34;4986329;28;20229;-60
2023/03/30 09:30:20;;;;;;;9.00;2.80;;;;;;;13.35;100.00;98418.50;4986775;28;20254;-60
2023/03/30 09:32:58;;;;;;;8.70;3.70;;;;;;;13.17;100.00;98424.03;4984277;28;20238;-61
2023/03/30 09:35:33;;;;;;;6.43;2.93;;;;;;;13.05;97.88;98444.53;4990375;28;20239;-60
2023/03/30 09:38:00;;;;;;;5.60;3.10;;;;;;;13.07;99.48;98442.56;4988274;28;20232;-59
2023/03/30 09:40:39;;;;;;;6.43;3.20;;;;;;;13.04;100.00;98427.19;4987341;28;20712;-60
2023/03/30 09:43:16;;;;;;;6.43;3.20;;;;;;;13.03;100.00;98433.41;4986369;28;20249;-60
2023/03/30 09:45:45;;;;;;;6.97;3.10;;;;;;;13.04;98.37;98426.38;4986512;28;20244;-60
2023/03/30 09:48:11;;;;;;;6.87;3.13;;;;;;;13.06;100.00;98419.97;4988819;28;20700;-60
2023/03/30 09:50:40;;;;;;;8.27;3.23;;;;;;;12.79;100.00;98418.63;4988731;28;20234;-61
2023/03/30 09:53:19;;;;;;;8.77;4.00;;;;;;;12.93;100.00;98419.72;4986103;28;20225;-60
2023/03/30 09:55:57;;;;;;;9.67;2.97;;;;;;;12.92;100.00;98410.22;4983961;28;20364;-60
2023/03/30 09:58:29;;;;;;;11.00;3.93;;;;;;;13.07;100.00;98390.16;4990512;28;20712;-60
2023/03/30 10:01:04;;;;;;;8.93;3.03;;;;;;;13.01;100.00;98397.91;4987464;28;20284;-60
2023/03/30 10:03:31;;;;;;;9.97;3.30;;;;;;;13.12;98.48;98406.19;4991902;28;20233;-60
2023/03/30 10:06:04;;;;;;;12.27;3.13;;;;;;;13.13;100.00;98410.44;4986034;28;20246;-60
2023/03/30 10:08:31;;;;;;;11.53;3.17;;;;;;;13.07;100.00;98413.75;4987249;28;20237;-60
2023/03/30 10:11:00;;;;;;;6.60;2.93;;;;;;;13.15;98.13;98415.53;4986542;28;20227;-60
2023/03/30 10:13:32;;;;;;;12.27;3.47;;;;;;;13.08;100.00;98423.25;4986484;28;20247;-60
2023/03/30 10:16:04;;;;;;;7.33;3.30;;;;;;;12.98;100.00;98433.09;4984543;28;20258;-61
2023/03/30 10:18:42;;;;;;;6.27;3.07;;;;;;;12.91;100.00;98411.19;4987903;28;20262;-60
2023/03/30 10:21:18;;;;;;;10.13;3.57;;;;;;;12.81;100.00;98406.97;4987081;28;20250;-61
2023/03/30 10:23:59;;;;;;;11.10;3.30;;;;;;;12.82;100.00;98416.47;4981324;28;20214;-61
2023/03/30 10:26:29;;;;;;;8.83;2.97;;;;;;;12.87;100.00;98407.28;4988768;28;20237;-60
2023/03/30 10:29:03;;;;;;;7.60;3.80;;;;;;;12.98;100.00;98391.19;4985727;28;20240;-60
2023/03/30 10:31:30;;;;;;;10.33;3.70;;;;;;;13.14;100.00;98370.13;4986904;28;20780;-59
2023/03/30 10:33:59;;;;;;;8.13;3.20;;;;;;;13.12;100.00;98379.97;4984685;28;20736;-60
2023/03/30 10:36:30;;;;;;;11.00;4.00;;;;;;;13.12;100.00;98373.94;4989783;28;20232;-60
2023/03/30 10:39:06;;;;;;;9.13;3.93;;;;;;;13.09;100.00;98372.47;4983408;28;20405;-60
2023/03/30 10:41:33;;;;;;;8.87;3.47;;;;;;;13.09;100.00;98393.41;4988744;28;20242;-60
2023/03/30 10:44:15;;;;;;;13.67;3.87;;;;;;;13.19;100.00;98382.75;4986527;28;20252;-60
2023/03/30 10:46:42;;;;;;;6.93;3.20;;;;;;;13.34;100.00;98379.34;4988915;28;20225;-60
2023/03/30 10:49:17;;;;;;;14.00;4.70;;;;;;;13.33;100.00;98393.44;4985229;28;20606;-60
2023/03/30 10:51:56;;;;;;;16.70;6.23;;;;;;;13.35;100.00;98391.47;4986310;28;20236;-60
2023/03/30 10:54:31;;;;;;;10.27;4.47;;;;;;;13.30;100.00;98405.09;4988961;28;20260;-60
2023/03/30 10:57:17;;;;;;;10.50;3.37;;;;;;;13.47;100.00;98405.81;4984995;28;20226;-60
2023/03/30 11:00:08;;;;;;;11.50;5.53;;;;;;;13.52;98.04;98403.50;4984452;28;20242;-60
2023/03/30 11:02:56;;;;;;;8.87;4.13;;;;;;;13.61;99.12;98409.50;4984637;28;20284;-60
2023/03/30 11:05:28;;;;;;;6.43;3.40;;;;;;;13.83;98.15;98396.53;4984024;28;20245;-59
2023/03/30 11:08:00;;;;;;;11.33;3.30;;;;;;;14.01;96.59;98391.75;4985802;28;20706;-60
2023/03/30 11:10:30;;;;;;;12.93;4.00;;;;;;;14.46;93.88;98409.38;4989186;28;20317;-60
2023/03/30 11:13:01;;;;;;;5.00;3.30;;;;;;;14.80;90.54;98396.69;4983989;28;20292;-61
2023/03/30 11:15:33;;;;;;;9.07;3.53;;;;;;;15.00;90.45;98403.00;4988039;28;20252;-60
2023/03/30 11:18:06;;;;;;;10.00;3.70;;;;;;;15.32;84.77;98419.31;4983709;28;20244;-59
2023/03/30 11:20:37;;;;;;;8.77;3.80;;;;;;;15.27;89.17;98412.97;4984689;28;20233;-60
2023/03/30 11:23:13;;;;;;;9.37;3.53;;;;;;;14.78;88.73;98436.31;4986152;28;20250;-60
2023/03/30 11:25:52;;;;;;;14.90;5.00;;;;;;;14.86;87.37;98424.84;4982666;28;20240;-60
2023/03/30 11:28:37;;;;;;;14.03;3.90;;;;;;;14.50;88.59;98422.94;4983049;28;20298;-60
2023/03/30 11:31:23;;;;;;;13.13;3.53;;;;;;;15.06;83.43;98438.22;4982669;28;21739;-60
2023/03/30 11:33:56;;;;;;;13.57;7.23;;;;;;;15.05;86.07;98437.44;4986800;28;20298;-60
2023/03/30 11:36:30;;;;;;;10.63;4.17;;;;;;;14.98;86.33;98430.44;4986040;28;20694;-61
2023/03/30 11:39:02;;;;;;;13.90;4.77;;;;;;;15.17;86.52;98416.72;4985159;28;20585;-60
2023/03/30 11:41:36;;;;;;;13.03;4.20;;;;;;;15.37;86.30;98434.53;4986983;28;20588;-60
2023/03/30 11:44:03;;;;;;;16.50;7.90;;;;;;;15.44;86.89;98434.59;4985196;28;21055;-60
2023/03/30 11:46:40;;;;;;;11.47;5.37;;;;;;;15.27;87.83;98432.22;4986118;28;20228;-61
2023/03/30 11:49:25;;;;;;;19.93;8.40;;;;;;;15.13;87.02;98425.97;4978344;28;20237;-60
2023/03/30 11:52:04;;;;;;;14.03;4.10;;;;;;;14.97;85.84;98418.31;4980737;28;20874;-60
2023/03/30 11:54:52;;;;;;;13.07;4.20;;;;;;;15.02;87.56;98410.69;4974965;28;20793;-59